createdAt,value
2019-01-19T00:00:11.250Z,0.00
2019-01-19T00:01:11.190Z,0.00
2019-01-19T00:02:11.128Z,0.00
2019-01-19T00:03:11.064Z,0.00
2019-01-19T00:04:11.003Z,0.00
2019-01-19T00:05:10.948Z,0.00
2019-01-19T00:06:10.881Z,0.00
2019-01-19T00:07:10.817Z,0.00
2019-01-19T00:08:10.756Z,0.00
2019-01-19T00:09:10.696Z,0.00
2019-01-19T00:10:10.633Z,0.00
2019-01-19T00:11:10.569Z,0.00
2019-01-19T00:12:10.509Z,0.00
2019-01-19T00:13:10.446Z,0.00
2019-01-19T00:14:10.387Z,0.00
2019-01-19T00:15:10.324Z,0.00
2019-01-19T00:16:10.261Z,0.00
2019-01-19T00:17:10.199Z,0.00
2019-01-19T00:18:10.137Z,0.00
2019-01-19T00:19:10.075Z,0.00
2019-01-19T00:20:10.016Z,0.00
2019-01-19T00:21:09.952Z,0.00
2019-01-19T00:22:09.891Z,0.00
2019-01-19T00:23:09.828Z,0.00
2019-01-19T00:24:09.769Z,0.00
2019-01-19T00:25:09.707Z,0.00
2019-01-19T00:26:09.645Z,0.00
2019-01-19T00:27:09.581Z,0.00
2019-01-19T00:28:09.523Z,0.00
2019-01-19T00:29:09.463Z,0.00
2019-01-19T00:30:09.397Z,0.00
2019-01-19T00:31:09.332Z,0.00
2019-01-19T00:32:09.274Z,0.00
2019-01-19T00:33:09.210Z,0.00
2019-01-19T00:34:09.148Z,0.00
2019-01-19T00:35:09.085Z,0.00
2019-01-19T00:36:09.024Z,0.00
2019-01-19T00:37:08.964Z,0.00
2019-01-19T00:38:08.906Z,0.00
2019-01-19T00:39:08.841Z,0.00
2019-01-19T00:40:08.776Z,0.00
2019-01-19T00:41:08.716Z,0.00
2019-01-19T00:42:08.654Z,0.00
2019-01-19T00:43:08.591Z,0.00
2019-01-19T00:44:08.531Z,0.00
2019-01-19T00:45:08.467Z,0.00
2019-01-19T00:46:08.409Z,0.00
2019-01-19T00:47:08.344Z,0.00
2019-01-19T00:48:08.281Z,0.00
2019-01-19T00:49:08.219Z,0.00
2019-01-19T00:50:08.159Z,0.00
2019-01-19T00:51:08.098Z,0.00
2019-01-19T00:52:08.035Z,0.00
2019-01-19T00:53:07.973Z,0.00
2019-01-19T00:54:07.913Z,0.00
2019-01-19T00:55:07.849Z,0.00
2019-01-19T00:56:07.786Z,0.00
2019-01-19T00:57:07.726Z,0.00
2019-01-19T00:58:07.663Z,0.00
2019-01-19T00:59:07.602Z,0.00
2019-01-19T01:00:07.543Z,0.00
2019-01-19T01:01:07.476Z,0.00
2019-01-19T01:02:07.416Z,0.00
2019-01-19T01:03:07.356Z,0.00
2019-01-19T01:04:07.291Z,0.00
2019-01-19T01:05:07.231Z,0.00
2019-01-19T01:06:07.167Z,0.00
2019-01-19T01:07:07.105Z,0.00
2019-01-19T01:08:07.048Z,0.00
2019-01-19T01:09:06.981Z,0.00
2019-01-19T01:10:06.920Z,0.00
2019-01-19T01:11:06.858Z,0.00
2019-01-19T01:12:06.812Z,0.00
2019-01-19T01:13:06.734Z,0.00
2019-01-19T01:14:06.675Z,0.00
2019-01-19T01:15:06.610Z,0.00
2019-01-19T01:16:06.547Z,0.00
2019-01-19T01:17:06.487Z,0.00
2019-01-19T01:18:06.436Z,0.00
2019-01-19T01:19:06.363Z,0.00
2019-01-19T01:20:06.302Z,0.00
2019-01-19T01:21:06.241Z,0.00
2019-01-19T01:22:06.177Z,0.00
2019-01-19T01:23:06.113Z,0.00
2019-01-19T01:24:06.053Z,0.00
2019-01-19T01:25:05.991Z,0.00
2019-01-19T01:26:05.928Z,0.00
2019-01-19T01:27:05.866Z,0.00
2019-01-19T01:28:05.804Z,0.00
2019-01-19T01:29:05.742Z,0.00
2019-01-19T01:30:05.682Z,0.00
2019-01-19T01:31:05.623Z,0.00
2019-01-19T01:32:05.561Z,0.00
2019-01-19T01:33:05.497Z,0.00
2019-01-19T01:34:05.433Z,0.00
2019-01-19T01:35:05.370Z,0.00
2019-01-19T01:36:05.308Z,0.00
2019-01-19T01:37:05.255Z,0.00
2019-01-19T01:38:05.185Z,0.00
2019-01-19T01:39:05.122Z,0.00
2019-01-19T01:40:05.068Z,0.00
2019-01-19T01:41:05.001Z,0.00
2019-01-19T01:42:04.938Z,0.00
2019-01-19T01:43:04.878Z,0.00
2019-01-19T01:44:04.812Z,0.00
2019-01-19T01:45:04.750Z,0.00
2019-01-19T01:46:04.688Z,0.00
2019-01-19T01:47:04.626Z,0.00
2019-01-19T01:48:04.571Z,0.00
2019-01-19T01:49:04.503Z,0.00
2019-01-19T01:50:04.441Z,0.00
2019-01-19T01:51:04.379Z,0.00
2019-01-19T01:52:04.316Z,0.00
2019-01-19T01:53:04.255Z,0.00
2019-01-19T01:54:04.197Z,0.00
2019-01-19T01:55:04.130Z,0.00
2019-01-19T01:56:04.068Z,0.00
2019-01-19T01:57:04.006Z,0.00
2019-01-19T01:58:03.945Z,0.00
2019-01-19T01:59:03.882Z,0.00
2019-01-19T02:00:03.820Z,0.00
2019-01-19T02:01:03.760Z,0.00
2019-01-19T02:02:03.696Z,0.00
2019-01-19T02:03:03.635Z,0.00
2019-01-19T02:04:03.572Z,0.00
2019-01-19T02:05:03.513Z,0.00
2019-01-19T02:06:03.612Z,0.00
2019-01-19T02:07:03.386Z,0.00
2019-01-19T02:08:03.324Z,0.00
2019-01-19T02:09:03.262Z,0.00
2019-01-19T02:10:03.201Z,0.00
2019-01-19T02:11:03.137Z,0.00
2019-01-19T02:12:03.076Z,0.00
2019-01-19T02:13:03.014Z,0.00
2019-01-19T02:14:02.952Z,0.00
2019-01-19T02:15:02.889Z,0.00
2019-01-19T02:16:02.828Z,0.00
2019-01-19T02:17:02.768Z,0.00
2019-01-19T02:18:02.704Z,0.00
2019-01-19T02:19:02.644Z,0.00
2019-01-19T02:20:02.581Z,0.00
2019-01-19T02:21:02.521Z,0.00
2019-01-19T02:22:02.456Z,0.00
2019-01-19T02:23:02.394Z,0.00
2019-01-19T02:24:02.331Z,0.00
2019-01-19T02:25:02.271Z,0.00
2019-01-19T02:26:02.571Z,0.00
2019-01-19T02:27:02.145Z,0.00
2019-01-19T02:28:02.083Z,0.00
2019-01-19T02:29:02.023Z,0.00
2019-01-19T02:30:02.168Z,0.00
2019-01-19T02:31:01.898Z,0.00
2019-01-19T02:32:01.835Z,0.00
2019-01-19T02:33:01.773Z,0.00
2019-01-19T02:34:01.713Z,0.00
2019-01-19T02:35:01.655Z,0.00
2019-01-19T02:36:01.586Z,0.00
2019-01-19T02:37:01.528Z,0.00
2019-01-19T02:38:01.463Z,0.00
2019-01-19T02:39:01.411Z,0.00
2019-01-19T02:40:01.341Z,0.00
2019-01-19T02:41:01.276Z,0.00
2019-01-19T02:42:01.215Z,0.00
2019-01-19T02:43:01.151Z,0.00
2019-01-19T02:44:01.091Z,0.00
2019-01-19T02:45:01.031Z,0.00
2019-01-19T02:46:00.966Z,0.00
2019-01-19T02:47:00.904Z,0.00
2019-01-19T02:48:00.841Z,0.00
2019-01-19T02:49:00.781Z,0.00
2019-01-19T02:50:00.718Z,0.00
2019-01-19T02:51:00.658Z,0.00
2019-01-19T02:52:00.594Z,0.00
2019-01-19T02:53:00.534Z,0.00
2019-01-19T02:54:00.470Z,0.00
2019-01-19T02:55:00.407Z,0.00
2019-01-19T02:56:00.344Z,0.00
2019-01-19T02:57:00.289Z,0.00
2019-01-19T02:58:00.224Z,0.00
2019-01-19T02:59:00.161Z,0.00
2019-01-19T03:00:00.157Z,0.00
2019-01-19T03:01:00.034Z,0.00
2019-01-19T03:01:59.972Z,0.00
2019-01-19T03:02:59.910Z,0.00
2019-01-19T03:03:59.848Z,0.00
2019-01-19T03:04:59.786Z,0.00
2019-01-19T03:05:59.727Z,0.00
2019-01-19T03:06:59.661Z,0.00
2019-01-19T03:07:59.603Z,0.00
2019-01-19T03:08:59.538Z,0.00
2019-01-19T03:09:59.476Z,0.00
2019-01-19T03:10:59.417Z,0.00
2019-01-19T03:11:59.351Z,0.00
2019-01-19T03:12:59.288Z,0.00
2019-01-19T03:13:59.229Z,0.00
2019-01-19T03:14:59.165Z,0.00
2019-01-19T03:15:59.104Z,0.00
2019-01-19T03:16:59.040Z,0.00
2019-01-19T03:17:58.980Z,0.00
2019-01-19T03:18:58.916Z,0.00
2019-01-19T03:19:58.854Z,0.00
2019-01-19T03:20:58.795Z,0.00
2019-01-19T03:21:58.731Z,0.00
2019-01-19T03:22:58.671Z,0.00
2019-01-19T03:23:58.606Z,0.00
2019-01-19T03:24:58.543Z,0.00
2019-01-19T03:25:58.482Z,0.00
2019-01-19T03:26:58.419Z,0.00
2019-01-19T03:27:58.357Z,0.00
2019-01-19T03:28:58.299Z,0.00
2019-01-19T03:29:58.236Z,0.00
2019-01-19T03:30:58.171Z,0.00
2019-01-19T03:31:58.109Z,0.00
2019-01-19T03:32:58.051Z,0.00
2019-01-19T03:33:57.984Z,0.00
2019-01-19T03:34:57.921Z,0.00
2019-01-19T03:36:04.248Z,0.00
2019-01-19T03:36:57.797Z,0.00
2019-01-19T03:37:57.734Z,0.00
2019-01-19T03:38:57.671Z,0.00
2019-01-19T03:39:57.612Z,0.00
2019-01-19T03:40:57.549Z,0.00
2019-01-19T03:41:57.486Z,0.00
2019-01-19T03:42:57.423Z,0.00
2019-01-19T03:43:57.361Z,0.00
2019-01-19T03:44:57.302Z,0.00
2019-01-19T03:45:57.238Z,0.00
2019-01-19T03:46:57.175Z,0.00
2019-01-19T03:47:57.113Z,0.00
2019-01-19T03:48:57.051Z,0.00
2019-01-19T03:49:56.988Z,0.00
2019-01-19T03:50:56.925Z,0.00
2019-01-19T03:51:56.863Z,0.00
2019-01-19T03:52:56.801Z,0.00
2019-01-19T03:53:56.742Z,0.00
2019-01-19T03:54:56.677Z,0.00
2019-01-19T03:55:56.618Z,0.00
2019-01-19T03:56:56.553Z,0.00
2019-01-19T03:57:56.491Z,0.00
2019-01-19T03:58:56.427Z,0.00
2019-01-19T03:59:56.368Z,0.00
2019-01-19T04:00:56.304Z,0.00
2019-01-19T04:01:56.274Z,0.00
2019-01-19T04:02:56.180Z,0.00
2019-01-19T04:03:56.119Z,0.00
2019-01-19T04:04:56.056Z,0.00
2019-01-19T04:05:55.996Z,0.00
2019-01-19T04:06:55.929Z,0.00
2019-01-19T04:07:55.870Z,0.00
2019-01-19T04:08:55.806Z,0.00
2019-01-19T04:09:55.744Z,0.00
2019-01-19T04:10:55.684Z,0.00
2019-01-19T04:11:55.619Z,0.00
2019-01-19T04:12:55.557Z,0.00
2019-01-19T04:13:55.494Z,0.00
2019-01-19T04:14:55.437Z,0.00
2019-01-19T04:15:55.370Z,0.00
2019-01-19T04:16:55.309Z,0.00
2019-01-19T04:17:55.248Z,0.00
2019-01-19T04:18:55.184Z,0.00
2019-01-19T04:19:55.121Z,0.00
2019-01-19T04:20:55.064Z,0.00
2019-01-19T04:21:54.997Z,0.00
2019-01-19T04:22:54.937Z,0.00
2019-01-19T04:23:54.880Z,0.00
2019-01-19T04:24:54.811Z,0.00
2019-01-19T04:25:54.749Z,0.00
2019-01-19T04:26:54.686Z,0.00
2019-01-19T04:27:54.624Z,0.00
2019-01-19T04:28:54.561Z,0.00
2019-01-19T04:29:54.502Z,0.00
2019-01-19T04:30:54.437Z,0.00
2019-01-19T04:31:54.378Z,0.00
2019-01-19T04:32:54.312Z,0.00
2019-01-19T04:33:54.250Z,0.00
2019-01-19T04:34:54.188Z,0.00
2019-01-19T04:35:54.125Z,0.00
2019-01-19T04:36:54.064Z,0.00
2019-01-19T04:37:54.007Z,0.00
2019-01-19T04:38:53.938Z,0.00
2019-01-19T04:39:53.876Z,0.00
2019-01-19T04:40:53.813Z,0.00
2019-01-19T04:41:53.755Z,0.00
2019-01-19T04:42:53.691Z,0.00
2019-01-19T04:43:53.626Z,0.00
2019-01-19T04:44:53.565Z,0.00
2019-01-19T04:45:53.503Z,0.00
2019-01-19T04:46:53.446Z,0.00
2019-01-19T04:47:53.380Z,0.00
2019-01-19T04:48:53.315Z,0.00
2019-01-19T04:49:53.256Z,0.00
2019-01-19T04:50:53.192Z,0.00
2019-01-19T04:51:53.127Z,0.00
2019-01-19T04:52:53.067Z,0.00
2019-01-19T04:53:53.003Z,0.00
2019-01-19T04:54:52.941Z,0.00
2019-01-19T04:55:52.878Z,0.00
2019-01-19T04:56:52.822Z,0.00
2019-01-19T04:57:52.758Z,0.00
2019-01-19T04:58:52.695Z,0.00
2019-01-19T04:59:52.629Z,0.00
2019-01-19T05:00:52.567Z,0.00
2019-01-19T05:01:52.504Z,0.00
2019-01-19T05:02:52.444Z,0.00
2019-01-19T05:03:52.383Z,0.00
2019-01-19T05:04:52.318Z,0.00
2019-01-19T05:05:52.258Z,0.00
2019-01-19T05:06:52.193Z,0.00
2019-01-19T05:07:52.134Z,0.00
2019-01-19T05:08:52.067Z,0.00
2019-01-19T05:09:52.013Z,0.00
2019-01-19T05:10:51.944Z,0.00
2019-01-19T05:11:51.882Z,0.00
2019-01-19T05:12:51.818Z,0.00
2019-01-19T05:13:51.757Z,0.00
2019-01-19T05:14:51.698Z,0.00
2019-01-19T05:15:51.632Z,0.00
2019-01-19T05:16:51.571Z,0.00
2019-01-19T05:17:51.507Z,0.00
2019-01-19T05:18:51.444Z,0.00
2019-01-19T05:19:51.382Z,0.00
2019-01-19T05:20:51.321Z,0.00
2019-01-19T05:21:51.257Z,0.00
2019-01-19T05:22:51.194Z,0.00
2019-01-19T05:23:51.132Z,0.00
2019-01-19T05:24:51.070Z,0.00
2019-01-19T05:25:51.008Z,0.00
2019-01-19T05:26:50.952Z,0.00
2019-01-19T05:27:50.885Z,0.00
2019-01-19T05:28:50.824Z,0.00
2019-01-19T05:29:50.758Z,0.00
2019-01-19T05:30:50.695Z,0.00
2019-01-19T05:31:50.638Z,0.00
2019-01-19T05:32:50.575Z,0.00
2019-01-19T05:33:50.511Z,0.00
2019-01-19T05:34:50.450Z,0.00
2019-01-19T05:35:50.385Z,0.00
2019-01-19T05:36:50.323Z,0.00
2019-01-19T05:37:50.260Z,0.00
2019-01-19T05:38:50.197Z,0.00
2019-01-19T05:39:50.134Z,0.00
2019-01-19T05:40:50.071Z,0.00
2019-01-19T05:41:50.012Z,0.00
2019-01-19T05:42:49.947Z,0.00
2019-01-19T05:43:49.885Z,0.00
2019-01-19T05:44:49.839Z,0.00
2019-01-19T05:45:49.763Z,0.00
2019-01-19T05:46:49.746Z,0.00
2019-01-19T05:47:49.637Z,0.00
2019-01-19T05:48:49.573Z,0.00
2019-01-19T05:49:49.512Z,0.00
2019-01-19T05:50:49.450Z,0.00
2019-01-19T05:51:49.386Z,0.00
2019-01-19T05:52:49.328Z,0.00
2019-01-19T05:53:49.262Z,0.00
2019-01-19T05:54:49.201Z,0.00
2019-01-19T05:55:49.138Z,0.00
2019-01-19T05:56:49.073Z,0.00
2019-01-19T05:57:49.020Z,0.00
2019-01-19T05:58:48.960Z,0.00
2019-01-19T05:59:48.886Z,0.00
2019-01-19T06:00:48.827Z,0.00
2019-01-19T06:01:48.772Z,0.00
2019-01-19T06:02:48.699Z,0.00
2019-01-19T06:03:48.645Z,0.00
2019-01-19T06:04:48.583Z,0.00
2019-01-19T06:05:48.515Z,0.00
2019-01-19T06:06:48.455Z,0.00
2019-01-19T06:07:48.400Z,0.00
2019-01-19T06:08:48.330Z,0.00
2019-01-19T06:09:48.276Z,0.00
2019-01-19T06:10:48.199Z,0.00
2019-01-19T06:11:48.138Z,0.00
2019-01-19T06:12:48.079Z,0.00
2019-01-19T06:13:48.012Z,0.00
2019-01-19T06:14:47.949Z,0.00
2019-01-19T06:15:47.887Z,0.00
2019-01-19T06:16:47.831Z,0.00
2019-01-19T06:17:47.763Z,0.00
2019-01-19T06:18:47.699Z,0.00
2019-01-19T06:19:47.639Z,0.00
2019-01-19T06:20:47.575Z,0.00
2019-01-19T06:21:47.513Z,0.00
2019-01-19T06:22:47.449Z,0.00
2019-01-19T06:23:47.387Z,0.00
2019-01-19T06:24:47.325Z,0.00
2019-01-19T06:25:47.263Z,0.00
2019-01-19T06:26:47.199Z,0.00
2019-01-19T06:27:47.139Z,0.00
2019-01-19T06:28:47.075Z,0.00
2019-01-19T06:29:47.013Z,0.00
2019-01-19T06:30:46.949Z,0.00
2019-01-19T06:31:46.888Z,0.00
2019-01-19T06:32:46.827Z,0.00
2019-01-19T06:33:46.775Z,0.00
2019-01-19T06:34:46.700Z,0.00
2019-01-19T06:35:46.637Z,0.00
2019-01-19T06:36:54.566Z,0.00
2019-01-19T06:37:46.513Z,0.00
2019-01-19T06:38:46.449Z,0.00
2019-01-19T06:39:46.387Z,0.00
2019-01-19T06:40:46.329Z,0.00
2019-01-19T06:41:46.264Z,0.00
2019-01-19T06:42:46.200Z,0.00
2019-01-19T06:43:46.138Z,0.00
2019-01-19T06:44:46.681Z,0.00
2019-01-19T06:45:46.015Z,0.00
2019-01-19T06:46:45.950Z,0.00
2019-01-19T06:47:45.889Z,0.00
2019-01-19T06:48:45.824Z,0.00
2019-01-19T06:49:45.762Z,0.00
2019-01-19T06:50:45.705Z,0.00
2019-01-19T06:51:45.638Z,0.00
2019-01-19T06:52:45.578Z,0.00
2019-01-19T06:53:45.513Z,0.00
2019-01-19T06:54:45.449Z,0.00
2019-01-19T06:55:45.387Z,0.00
2019-01-19T06:56:45.325Z,0.00
2019-01-19T06:57:45.263Z,0.00
2019-01-19T06:58:45.200Z,0.00
2019-01-19T06:59:45.136Z,0.00
2019-01-19T07:00:45.079Z,0.00
2019-01-19T07:01:45.021Z,0.00
2019-01-19T07:02:44.949Z,0.00
2019-01-19T07:03:44.887Z,0.00
2019-01-19T07:04:44.824Z,0.00
2019-01-19T07:05:44.762Z,0.00
2019-01-19T07:06:44.701Z,0.00
2019-01-19T07:07:44.636Z,0.00
2019-01-19T07:08:44.573Z,0.00
2019-01-19T07:09:44.513Z,0.00
2019-01-19T07:10:44.450Z,0.00
2019-01-19T07:11:44.387Z,0.00
2019-01-19T07:12:44.324Z,0.00
2019-01-19T07:13:44.271Z,0.00
2019-01-19T07:14:44.197Z,0.00
2019-01-19T07:15:44.138Z,0.00
2019-01-19T07:16:44.072Z,0.00
2019-01-19T07:17:44.015Z,0.00
2019-01-19T07:18:43.950Z,0.00
2019-01-19T07:19:43.887Z,0.00
2019-01-19T07:20:43.824Z,0.00
2019-01-19T07:21:43.765Z,0.00
2019-01-19T07:22:43.698Z,0.00
2019-01-19T07:23:43.641Z,0.00
2019-01-19T07:24:43.578Z,0.00
2019-01-19T07:25:43.544Z,0.00
2019-01-19T07:26:43.449Z,0.00
2019-01-19T07:27:43.386Z,0.00
2019-01-19T07:28:43.323Z,0.00
2019-01-19T07:29:43.264Z,0.00
2019-01-19T07:30:43.201Z,0.00
2019-01-19T07:31:43.134Z,0.00
2019-01-19T07:32:43.075Z,0.00
2019-01-19T07:33:43.011Z,0.00
2019-01-19T07:34:42.947Z,0.00
2019-01-19T07:35:42.887Z,0.00
2019-01-19T07:36:42.829Z,0.00
2019-01-19T07:37:42.759Z,0.00
2019-01-19T07:38:42.696Z,0.00
2019-01-19T07:39:42.635Z,0.00
2019-01-19T07:40:42.571Z,0.00
2019-01-19T07:41:42.510Z,0.00
2019-01-19T07:42:42.447Z,0.00
2019-01-19T07:43:42.384Z,0.00
2019-01-19T07:44:42.323Z,0.00
2019-01-19T07:45:42.258Z,4.00
2019-01-19T07:46:42.196Z,4.00
2019-01-19T07:47:42.134Z,4.00
2019-01-19T07:48:42.075Z,4.00
2019-01-19T07:49:42.010Z,4.00
2019-01-19T07:50:41.945Z,4.00
2019-01-19T07:51:41.888Z,4.00
2019-01-19T07:52:41.821Z,4.00
2019-01-19T07:53:41.757Z,0.00
2019-01-19T07:54:41.694Z,0.00
2019-01-19T07:55:41.633Z,0.00
2019-01-19T07:56:41.572Z,4.00
2019-01-19T07:57:41.507Z,4.00
2019-01-19T07:58:41.445Z,4.00
2019-01-19T07:59:41.381Z,0.00
2019-01-19T08:00:41.318Z,0.00
2019-01-19T08:01:41.257Z,0.00
2019-01-19T08:02:41.194Z,4.00
2019-01-19T08:03:41.132Z,4.00
2019-01-19T08:04:41.068Z,4.00
2019-01-19T08:05:41.009Z,4.00
2019-01-19T08:06:40.943Z,4.00
2019-01-19T08:07:40.880Z,4.00
2019-01-19T08:08:40.823Z,4.00
2019-01-19T08:09:40.755Z,4.00
2019-01-19T08:10:40.693Z,4.00
2019-01-19T08:11:40.631Z,4.00
2019-01-19T08:12:40.571Z,8.00
2019-01-19T08:13:40.505Z,4.00
2019-01-19T08:14:40.440Z,4.00
2019-01-19T08:15:40.379Z,8.00
2019-01-19T08:16:40.324Z,8.00
2019-01-19T08:17:40.254Z,4.00
2019-01-19T08:18:40.191Z,8.00
2019-01-19T08:19:40.128Z,8.00
2019-01-19T08:20:40.113Z,8.00
2019-01-19T08:21:40.005Z,8.00
2019-01-19T08:22:39.942Z,8.00
2019-01-19T08:23:39.878Z,8.00
2019-01-19T08:24:39.815Z,8.00
2019-01-19T08:25:39.754Z,12.00
2019-01-19T08:26:39.689Z,12.00
2019-01-19T08:27:39.627Z,12.00
2019-01-19T08:28:39.566Z,12.00
2019-01-19T08:29:39.503Z,12.00
2019-01-19T08:30:39.438Z,12.00
2019-01-19T08:31:39.376Z,8.00
2019-01-19T08:32:39.315Z,8.00
2019-01-19T08:33:39.251Z,8.00
2019-01-19T08:34:39.188Z,8.00
2019-01-19T08:35:39.127Z,8.00
2019-01-19T08:36:39.065Z,12.00
2019-01-19T08:37:39.000Z,8.00
2019-01-19T08:38:38.939Z,8.00
2019-01-19T08:39:38.875Z,8.00
2019-01-19T08:40:38.817Z,8.00
2019-01-19T08:41:38.750Z,4.00
2019-01-19T08:42:38.691Z,8.00
2019-01-19T08:43:38.624Z,4.00
2019-01-19T08:44:38.562Z,4.00
2019-01-19T08:45:38.502Z,8.00
2019-01-19T08:46:38.436Z,8.00
2019-01-19T08:47:38.377Z,4.00
2019-01-19T08:48:38.312Z,4.00
2019-01-19T08:49:38.254Z,8.00
2019-01-19T08:50:38.185Z,8.00
2019-01-19T08:51:38.123Z,8.00
2019-01-19T08:52:38.062Z,4.00
2019-01-19T08:53:37.998Z,8.00
2019-01-19T08:54:37.935Z,8.00
2019-01-19T08:55:37.874Z,8.00
2019-01-19T08:56:38.212Z,8.00
2019-01-19T08:57:37.748Z,8.00
2019-01-19T08:58:37.685Z,8.00
2019-01-19T08:59:37.624Z,12.00
2019-01-19T09:00:37.566Z,12.00
2019-01-19T09:01:37.500Z,12.00
2019-01-19T09:02:37.436Z,12.00
2019-01-19T09:03:37.374Z,12.00
2019-01-19T09:04:37.311Z,12.00
2019-01-19T09:05:37.249Z,16.00
2019-01-19T09:06:37.181Z,12.00
2019-01-19T09:07:37.119Z,12.00
2019-01-19T09:08:37.059Z,12.00
2019-01-19T09:09:36.995Z,12.00
2019-01-19T09:10:36.932Z,12.00
2019-01-19T09:11:36.870Z,12.00
2019-01-19T09:12:36.806Z,12.00
2019-01-19T09:13:36.744Z,12.00
2019-01-19T09:14:36.684Z,16.00
2019-01-19T09:15:36.618Z,16.00
2019-01-19T09:16:40.560Z,12.00
2019-01-19T09:17:36.493Z,12.00
2019-01-19T09:18:36.430Z,16.00
2019-01-19T09:19:36.368Z,16.00
2019-01-19T09:20:36.305Z,16.00
2019-01-19T09:21:36.244Z,16.00
2019-01-19T09:22:36.179Z,16.00
2019-01-19T09:23:36.117Z,16.00
2019-01-19T09:24:36.054Z,12.00
2019-01-19T09:25:35.995Z,16.00
2019-01-19T09:26:35.930Z,16.00
2019-01-19T09:27:35.865Z,16.00
2019-01-19T09:28:35.803Z,12.00
2019-01-19T09:29:35.741Z,8.00
2019-01-19T09:30:35.678Z,8.00
2019-01-19T09:31:35.615Z,12.00
2019-01-19T09:32:35.554Z,8.00
2019-01-19T09:33:35.491Z,8.00
2019-01-19T09:34:35.431Z,12.00
2019-01-19T09:35:35.364Z,12.00
2019-01-19T09:36:35.301Z,16.00
2019-01-19T09:37:40.811Z,8.00
2019-01-19T09:38:35.176Z,8.00
2019-01-19T09:39:35.113Z,12.00
2019-01-19T09:40:35.052Z,12.00
2019-01-19T09:41:34.988Z,12.00
2019-01-19T09:42:34.925Z,16.00
2019-01-19T09:43:34.863Z,24.00
2019-01-19T09:44:34.800Z,28.00
2019-01-19T09:45:34.745Z,16.00
2019-01-19T09:46:34.686Z,16.00
2019-01-19T09:47:34.614Z,12.00
2019-01-19T09:48:34.549Z,12.00
2019-01-19T09:49:34.486Z,12.00
2019-01-19T09:50:34.423Z,8.00
2019-01-19T09:51:34.362Z,12.00
2019-01-19T09:52:34.299Z,12.00
2019-01-19T09:53:34.236Z,12.00
2019-01-19T09:54:34.174Z,12.00
2019-01-19T09:55:34.112Z,12.00
2019-01-19T09:56:34.047Z,8.00
2019-01-19T09:57:33.984Z,8.00
2019-01-19T09:58:33.923Z,16.00
2019-01-19T09:59:33.861Z,12.00
2019-01-19T10:00:36.652Z,12.00
2019-01-19T10:01:33.735Z,8.00
2019-01-19T10:02:33.671Z,12.00
2019-01-19T10:03:33.611Z,8.00
2019-01-19T10:04:33.548Z,12.00
2019-01-19T10:05:33.485Z,12.00
2019-01-19T10:06:33.420Z,20.00
2019-01-19T10:07:33.358Z,20.00
2019-01-19T10:08:33.333Z,16.00
2019-01-19T10:09:33.237Z,20.00
2019-01-19T10:10:33.171Z,16.00
2019-01-19T10:11:33.106Z,28.00
2019-01-19T10:12:33.045Z,16.00
2019-01-19T10:13:32.981Z,12.00
2019-01-19T10:14:32.972Z,12.00
2019-01-19T10:15:32.857Z,16.00
2019-01-19T10:16:32.836Z,16.00
2019-01-19T10:17:32.731Z,20.00
2019-01-19T10:18:32.666Z,16.00
2019-01-19T10:19:32.605Z,20.00
2019-01-19T10:20:32.541Z,24.00
2019-01-19T10:21:32.481Z,28.00
2019-01-19T10:22:32.417Z,40.00
2019-01-19T10:23:32.354Z,44.00
2019-01-19T10:24:32.294Z,48.00
2019-01-19T10:25:32.230Z,52.00
2019-01-19T10:26:32.169Z,64.00
2019-01-19T10:27:37.367Z,40.00
2019-01-19T10:28:32.040Z,68.00
2019-01-19T10:29:31.978Z,68.00
2019-01-19T10:30:31.916Z,60.00
2019-01-19T10:31:31.852Z,52.00
2019-01-19T10:32:31.790Z,84.00
2019-01-19T10:33:31.727Z,24.00
2019-01-19T10:34:31.664Z,36.00
2019-01-19T10:35:31.601Z,44.00
2019-01-19T10:36:31.539Z,72.00
2019-01-19T10:37:31.477Z,68.00
2019-01-19T10:38:31.420Z,72.00
2019-01-19T10:39:31.352Z,68.00
2019-01-19T10:40:31.287Z,60.00
2019-01-19T10:41:31.225Z,48.00
2019-01-19T10:42:31.161Z,32.00
2019-01-19T10:43:31.101Z,60.00
2019-01-19T10:44:31.037Z,20.00
2019-01-19T10:45:30.977Z,20.00
2019-01-19T10:46:30.913Z,44.00
2019-01-19T10:47:30.849Z,28.00
2019-01-19T10:48:30.787Z,28.00
2019-01-19T10:49:30.723Z,32.00
2019-01-19T10:50:30.660Z,16.00
2019-01-19T10:51:30.601Z,12.00
2019-01-19T10:52:30.535Z,20.00
2019-01-19T10:53:30.478Z,16.00
2019-01-19T10:54:30.416Z,8.00
2019-01-19T10:55:30.349Z,8.00
2019-01-19T10:56:30.287Z,8.00
2019-01-19T10:57:30.222Z,8.00
2019-01-19T10:58:30.159Z,12.00
2019-01-19T10:59:30.097Z,32.00
2019-01-19T11:00:30.044Z,8.00
2019-01-19T11:01:29.971Z,28.00
2019-01-19T11:02:29.914Z,8.00
2019-01-19T11:03:29.846Z,8.00
2019-01-19T11:04:29.784Z,8.00
2019-01-19T11:05:29.726Z,8.00
2019-01-19T11:06:29.658Z,4.00
2019-01-19T11:07:29.598Z,8.00
2019-01-19T11:08:29.538Z,8.00
2019-01-19T11:09:29.470Z,8.00
2019-01-19T11:10:29.408Z,8.00
2019-01-19T11:11:29.345Z,8.00
2019-01-19T11:12:29.282Z,4.00
2019-01-19T11:13:29.221Z,8.00
2019-01-19T11:14:29.156Z,4.00
2019-01-19T11:15:29.131Z,4.00
2019-01-19T11:16:29.033Z,4.00
2019-01-19T11:17:28.970Z,4.00
2019-01-19T11:18:28.907Z,4.00
2019-01-19T11:19:28.844Z,4.00
2019-01-19T11:20:28.780Z,4.00
2019-01-19T11:21:28.719Z,4.00
2019-01-19T11:22:28.654Z,4.00
2019-01-19T11:23:28.593Z,4.00
2019-01-19T11:24:28.531Z,0.00
2019-01-19T11:25:28.469Z,0.00
2019-01-19T11:26:28.405Z,4.00
2019-01-19T11:27:28.343Z,4.00
2019-01-19T11:28:28.282Z,4.00
2019-01-19T11:29:28.217Z,4.00
2019-01-19T11:30:28.156Z,4.00
2019-01-19T11:31:28.091Z,4.00
2019-01-19T11:32:28.029Z,4.00
2019-01-19T11:33:27.967Z,4.00
2019-01-19T11:34:27.906Z,4.00
2019-01-19T11:35:27.841Z,4.00
2019-01-19T11:36:27.780Z,4.00
2019-01-19T11:37:27.717Z,4.00
2019-01-19T11:38:27.652Z,4.00
2019-01-19T11:39:27.590Z,4.00
2019-01-19T11:40:27.528Z,4.00
2019-01-19T11:41:27.467Z,4.00
2019-01-19T11:42:27.402Z,4.00
2019-01-19T11:43:27.341Z,4.00
2019-01-19T11:44:27.277Z,4.00
2019-01-19T11:45:27.215Z,4.00
2019-01-19T11:46:27.153Z,4.00
2019-01-19T11:47:27.090Z,8.00
2019-01-19T11:48:27.026Z,8.00
2019-01-19T11:49:26.962Z,8.00
2019-01-19T11:50:26.902Z,8.00
2019-01-19T11:51:26.838Z,8.00
2019-01-19T11:52:26.783Z,8.00
2019-01-19T11:53:26.713Z,8.00
2019-01-19T11:54:26.651Z,4.00
2019-01-19T11:55:26.588Z,8.00
2019-01-19T11:56:26.528Z,8.00
2019-01-19T11:57:26.516Z,8.00
2019-01-19T11:58:26.399Z,4.00
2019-01-19T11:59:26.336Z,4.00
2019-01-19T12:00:26.275Z,8.00
2019-01-19T12:01:26.212Z,4.00
2019-01-19T12:02:26.147Z,4.00
2019-01-19T12:03:26.086Z,4.00
2019-01-19T12:04:26.026Z,4.00
2019-01-19T12:05:25.965Z,8.00
2019-01-19T12:06:25.899Z,4.00
2019-01-19T12:07:25.835Z,4.00
2019-01-19T12:08:25.773Z,4.00
2019-01-19T12:09:25.751Z,4.00
2019-01-19T12:10:25.660Z,4.00
2019-01-19T12:11:25.585Z,4.00
2019-01-19T12:12:25.527Z,4.00
2019-01-19T12:13:25.473Z,4.00
2019-01-19T12:14:25.400Z,4.00
2019-01-19T12:15:25.333Z,4.00
2019-01-19T12:16:25.270Z,0.00
2019-01-19T12:17:25.207Z,0.00
2019-01-19T12:18:25.145Z,4.00
2019-01-19T12:19:25.082Z,4.00
2019-01-19T12:20:25.020Z,4.00
2019-01-19T12:21:24.968Z,4.00
2019-01-19T12:22:24.895Z,4.00
2019-01-19T12:23:24.844Z,4.00
2019-01-19T12:24:24.773Z,4.00
2019-01-19T12:25:24.712Z,4.00
2019-01-19T12:26:24.644Z,0.00
2019-01-19T12:27:24.585Z,0.00
2019-01-19T12:28:24.522Z,0.00
2019-01-19T12:29:24.455Z,0.00
2019-01-19T12:30:24.391Z,0.00
2019-01-19T12:31:24.329Z,4.00
2019-01-19T12:32:24.266Z,4.00
2019-01-19T12:33:24.203Z,0.00
2019-01-19T12:34:24.144Z,0.00
2019-01-19T12:35:24.079Z,4.00
2019-01-19T12:36:24.015Z,4.00
2019-01-19T12:37:23.954Z,4.00
2019-01-19T12:38:27.019Z,4.00
2019-01-19T12:39:23.827Z,4.00
2019-01-19T12:40:23.771Z,4.00
2019-01-19T12:41:23.707Z,4.00
2019-01-19T12:42:23.641Z,4.00
2019-01-19T12:43:23.579Z,4.00
2019-01-19T12:44:23.513Z,0.00
2019-01-19T12:45:23.451Z,0.00
2019-01-19T12:46:23.387Z,0.00
2019-01-19T12:47:23.325Z,0.00
2019-01-19T12:48:23.263Z,0.00
2019-01-19T12:49:23.200Z,0.00
2019-01-19T12:50:23.137Z,0.00
2019-01-19T12:51:23.079Z,0.00
2019-01-19T12:52:23.012Z,0.00
2019-01-19T12:53:22.965Z,0.00
2019-01-19T12:54:22.897Z,0.00
2019-01-19T12:55:22.828Z,0.00
2019-01-19T12:56:22.764Z,0.00
2019-01-19T12:57:22.722Z,4.00
2019-01-19T12:58:22.634Z,0.00
2019-01-19T12:59:22.571Z,4.00
2019-01-19T13:00:22.510Z,0.00
2019-01-19T13:01:22.450Z,0.00
2019-01-19T13:02:22.388Z,0.00
2019-01-19T13:03:22.325Z,0.00
2019-01-19T13:04:22.258Z,0.00
2019-01-19T13:05:22.197Z,0.00
2019-01-19T13:06:22.154Z,0.00
2019-01-19T13:07:22.072Z,4.00
2019-01-19T13:08:22.009Z,4.00
2019-01-19T13:09:21.944Z,4.00
2019-01-19T13:10:21.881Z,4.00
2019-01-19T13:11:21.818Z,4.00
2019-01-19T13:12:21.769Z,4.00
2019-01-19T13:13:21.694Z,4.00